createdAt,value
2017-12-16T05:00:26.749Z,3.23
2017-12-16T05:00:52.265Z,3.32
2017-12-16T05:01:17.759Z,3.22
2017-12-16T05:01:43.278Z,3.25
2017-12-16T05:02:08.777Z,3.31
2017-12-16T05:02:34.281Z,3.29
2017-12-16T05:02:59.796Z,3.23
2017-12-16T05:03:25.278Z,3.23
2017-12-16T05:03:50.787Z,3.16
2017-12-16T05:04:16.298Z,3.22
2017-12-16T05:04:41.819Z,3.13
2017-12-16T05:05:07.292Z,3.18
2017-12-16T05:05:32.796Z,3.16
2017-12-16T05:05:58.310Z,3.08
2017-12-16T05:06:23.799Z,3.11
2017-12-16T05:06:49.277Z,3.11
2017-12-16T05:07:14.768Z,3.16
2017-12-16T05:07:40.267Z,3.1
2017-12-16T05:08:05.750Z,3.08
2017-12-16T05:08:31.257Z,3.05
2017-12-16T05:08:56.722Z,3.1
2017-12-16T05:09:22.216Z,3.1
2017-12-16T05:09:47.741Z,2.97
2017-12-16T05:10:13.201Z,3.01
2017-12-16T05:10:38.668Z,3.03
2017-12-16T05:11:04.175Z,2.97
2017-12-16T05:11:29.668Z,2.98
2017-12-16T05:11:55.158Z,2.89
2017-12-16T05:12:20.672Z,2.97
2017-12-16T05:12:46.182Z,2.95
2017-12-16T05:13:11.693Z,2.9
2017-12-16T05:13:37.228Z,2.95
2017-12-16T05:14:02.732Z,2.89
2017-12-16T05:14:28.220Z,2.9
2017-12-16T05:14:53.720Z,2.93
2017-12-16T05:15:19.210Z,2.93
2017-12-16T05:15:44.692Z,2.89
2017-12-16T05:16:10.188Z,2.87
2017-12-16T05:16:35.684Z,2.86
2017-12-16T05:17:01.203Z,2.87
2017-12-16T05:17:26.685Z,2.85
2017-12-16T05:17:52.206Z,2.8
2017-12-16T05:18:17.731Z,2.75
2017-12-16T05:18:43.259Z,2.75
2017-12-16T05:19:08.797Z,2.75
2017-12-16T05:19:34.311Z,2.74
2017-12-16T05:19:59.863Z,2.69
2017-12-16T05:20:25.354Z,2.8
2017-12-16T05:20:50.815Z,2.71
2017-12-16T05:21:16.348Z,2.71
2017-12-16T05:21:41.834Z,2.67
2017-12-16T05:22:07.311Z,2.68
2017-12-16T05:22:55.629Z,2.64
2017-12-16T05:23:21.133Z,2.61
2017-12-16T05:23:46.628Z,2.62
2017-12-16T05:24:12.110Z,2.61
2017-12-16T05:24:37.617Z,2.57
2017-12-16T05:25:03.105Z,2.6
2017-12-16T05:25:28.608Z,2.56
2017-12-16T05:25:54.073Z,2.64
2017-12-16T05:26:19.541Z,2.57
2017-12-16T05:26:45.054Z,2.57
2017-12-16T05:27:10.563Z,2.57
2017-12-16T05:27:36.059Z,2.57
2017-12-16T05:28:01.580Z,2.6
2017-12-16T05:28:27.055Z,2.61
2017-12-16T05:28:52.535Z,2.62
2017-12-16T05:29:18.059Z,2.65
2017-12-16T05:29:43.537Z,2.64
2017-12-16T05:30:08.990Z,2.62
2017-12-16T05:30:34.485Z,2.67
2017-12-16T05:30:59.990Z,2.69
2017-12-16T05:31:25.470Z,2.77
2017-12-16T05:32:34.122Z,2.75
2017-12-16T05:32:59.644Z,2.75
2017-12-16T05:33:25.122Z,2.74
2017-12-16T05:33:50.614Z,2.74
2017-12-16T05:34:16.132Z,2.8
2017-12-16T05:34:41.627Z,2.77
2017-12-16T05:35:07.117Z,2.8
2017-12-16T05:35:32.610Z,2.8
2017-12-16T05:35:58.121Z,2.82
2017-12-16T05:36:23.618Z,2.83
2017-12-16T05:36:49.114Z,2.79
2017-12-16T05:37:14.594Z,2.82
2017-12-16T05:37:40.112Z,2.8
2017-12-16T05:38:05.596Z,2.85
2017-12-16T05:38:31.101Z,2.86
2017-12-16T05:38:56.601Z,2.85
2017-12-16T05:39:50.041Z,2.89
2017-12-16T05:40:15.552Z,2.86
2017-12-16T05:40:41.049Z,2.92
2017-12-16T05:41:06.530Z,2.9
2017-12-16T05:41:32.038Z,2.83
2017-12-16T05:41:57.520Z,2.9
2017-12-16T05:42:23.027Z,2.85
2017-12-16T05:42:48.545Z,2.85
2017-12-16T05:43:14.040Z,2.87
2017-12-16T05:43:39.512Z,2.82
2017-12-16T05:44:05.032Z,2.83
2017-12-16T05:44:30.535Z,2.77
2017-12-16T05:44:55.993Z,2.87
2017-12-16T05:45:21.488Z,2.86
2017-12-16T05:45:46.993Z,2.8
2017-12-16T05:46:12.464Z,2.82
2017-12-16T05:46:37.956Z,2.82
2017-12-16T05:47:03.445Z,2.83
2017-12-16T05:47:28.965Z,2.83
2017-12-16T05:47:54.449Z,2.86
2017-12-16T05:48:19.937Z,2.87
2017-12-16T05:48:45.405Z,2.86
2017-12-16T05:49:10.904Z,2.89
2017-12-16T05:49:36.393Z,2.87
2017-12-16T05:50:01.878Z,2.87
2017-12-16T05:50:27.360Z,2.93
2017-12-16T05:50:52.861Z,2.93
2017-12-16T05:51:18.361Z,2.95
2017-12-16T05:51:43.876Z,2.9
2017-12-16T05:52:09.356Z,2.92
2017-12-16T05:52:34.830Z,2.93
2017-12-16T05:53:00.345Z,2.97
2017-12-16T05:53:25.812Z,2.87
2017-12-16T05:53:51.303Z,2.98
2017-12-16T05:54:16.822Z,2.95
2017-12-16T05:54:42.318Z,2.92
2017-12-16T05:55:51.040Z,2.98
2017-12-16T05:56:16.534Z,3
2017-12-16T05:56:42.036Z,3.14
2017-12-16T05:57:07.525Z,3.05
2017-12-16T05:57:33.031Z,3.07
2017-12-16T05:57:58.526Z,3.07
2017-12-16T05:58:24.037Z,3.08
2017-12-16T05:58:49.521Z,3.1
2017-12-16T05:59:14.990Z,3.04
2017-12-16T05:59:40.520Z,3.11
2017-12-16T06:00:06.006Z,3.07
2017-12-16T06:00:31.512Z,3.05
2017-12-16T06:00:57.011Z,3.13
2017-12-16T06:01:22.500Z,3.1
2017-12-16T06:01:47.997Z,3.05
2017-12-16T06:02:13.487Z,3.14
2017-12-16T06:02:38.974Z,3.18
2017-12-16T06:03:37.461Z,3.13
2017-12-16T06:04:02.974Z,3.11
2017-12-16T06:04:28.470Z,3.11
2017-12-16T06:04:53.980Z,3.16
2017-12-16T06:05:19.473Z,3.18
2017-12-16T06:05:44.963Z,3.16
2017-12-16T06:06:10.470Z,3.14
2017-12-16T06:06:35.958Z,3.1
2017-12-16T06:07:01.486Z,3.21
2017-12-16T06:07:26.997Z,3.13
2017-12-16T06:07:52.487Z,3.13
2017-12-16T06:08:17.956Z,3.07
2017-12-16T06:08:43.440Z,3.16
2017-12-16T06:09:08.944Z,3.07
2017-12-16T06:10:17.656Z,3.07
2017-12-16T06:10:43.152Z,3.16
2017-12-16T06:11:08.656Z,3.08
2017-12-16T06:11:34.158Z,3.11
2017-12-16T06:11:59.646Z,3.07
2017-12-16T06:12:25.151Z,3.07
2017-12-16T06:12:50.659Z,3.1
2017-12-16T06:13:16.170Z,3.14
2017-12-16T06:13:41.688Z,3.11
2017-12-16T06:14:07.182Z,3.03
2017-12-16T06:14:32.648Z,3
2017-12-16T06:14:58.130Z,2.98
2017-12-16T06:15:23.642Z,3.01
2017-12-16T06:15:49.117Z,2.97
2017-12-16T06:16:14.623Z,2.87
2017-12-16T06:16:40.112Z,2.9
2017-12-16T06:17:05.607Z,2.86
2017-12-16T06:17:31.104Z,2.86
2017-12-16T06:18:34.703Z,2.92
2017-12-16T06:19:00.187Z,2.77
2017-12-16T06:19:25.687Z,2.9
2017-12-16T06:19:51.158Z,2.82
2017-12-16T06:20:16.670Z,2.85
2017-12-16T06:20:42.184Z,2.83
2017-12-16T06:21:07.744Z,2.85
2017-12-16T06:21:33.216Z,2.82
2017-12-16T06:21:58.688Z,2.77
2017-12-16T06:22:24.191Z,2.85
2017-12-16T06:22:49.689Z,2.86
2017-12-16T06:23:15.176Z,2.86
2017-12-16T06:23:40.670Z,2.83
2017-12-16T06:24:06.189Z,2.82
2017-12-16T06:24:31.692Z,2.87
2017-12-16T06:24:57.156Z,2.79
2017-12-16T06:25:22.693Z,2.86
2017-12-16T06:25:48.188Z,2.83
2017-12-16T06:26:13.705Z,2.85
2017-12-16T06:26:39.231Z,2.8
2017-12-16T06:27:04.743Z,2.85
2017-12-16T06:27:30.232Z,2.83
2017-12-16T06:27:55.684Z,2.79
2017-12-16T06:28:21.178Z,2.83
2017-12-16T06:28:46.667Z,2.8
2017-12-16T06:29:12.168Z,2.75
2017-12-16T06:29:37.671Z,2.77
2017-12-16T06:30:03.149Z,2.77
2017-12-16T06:30:28.655Z,2.77
2017-12-16T06:30:54.149Z,2.75
2017-12-16T06:31:42.451Z,2.65
2017-12-16T06:32:07.937Z,2.65
2017-12-16T06:32:33.448Z,2.65
2017-12-16T06:32:58.937Z,2.62
2017-12-16T06:33:57.463Z,2.61
2017-12-16T06:34:22.959Z,2.6
2017-12-16T06:34:48.485Z,2.57
2017-12-16T06:35:13.967Z,2.6
2017-12-16T06:35:39.445Z,2.61
2017-12-16T06:36:04.955Z,2.54
2017-12-16T06:36:30.394Z,2.54
2017-12-16T06:36:55.911Z,2.6
2017-12-16T06:37:21.440Z,2.49
2017-12-16T06:37:46.936Z,2.44
2017-12-16T06:38:12.440Z,2.46
2017-12-16T06:38:37.937Z,2.49
2017-12-16T06:39:03.462Z,2.42
2017-12-16T06:39:28.943Z,2.39
2017-12-16T06:39:54.438Z,2.47
2017-12-16T06:40:19.959Z,2.38
2017-12-16T06:40:45.451Z,2.47
2017-12-16T06:41:10.918Z,2.31
2017-12-16T06:41:36.404Z,2.39
2017-12-16T06:42:01.881Z,2.31
2017-12-16T06:42:27.369Z,2.38
2017-12-16T06:42:52.862Z,2.38
2017-12-16T06:43:18.325Z,2.33
2017-12-16T06:43:43.796Z,2.38
2017-12-16T06:44:09.301Z,2.29
2017-12-16T06:44:34.804Z,2.28
2017-12-16T06:45:00.290Z,2.29
2017-12-16T06:45:25.795Z,2.29
2017-12-16T06:45:51.289Z,2.24
2017-12-16T06:46:16.792Z,2.29
2017-12-16T06:46:42.292Z,2.24
2017-12-16T06:47:07.791Z,2.29
2017-12-16T06:47:33.293Z,2.29
2017-12-16T06:47:58.808Z,2.25
2017-12-16T06:48:24.299Z,2.26
2017-12-16T06:48:49.805Z,2.15
2017-12-16T06:49:15.307Z,2.18
2017-12-16T06:49:40.810Z,2.15
2017-12-16T06:50:06.291Z,2.18
2017-12-16T06:50:31.752Z,2.14
2017-12-16T06:50:57.228Z,2.18
2017-12-16T06:51:22.751Z,2.24
2017-12-16T06:51:48.275Z,2.18
2017-12-16T06:52:13.750Z,2.14
2017-12-16T06:52:39.253Z,2.15
2017-12-16T06:53:04.754Z,2.14
2017-12-16T06:53:30.244Z,2.17
2017-12-16T06:53:55.727Z,2.2
2017-12-16T06:54:21.213Z,2.15
2017-12-16T06:54:46.702Z,2.2
2017-12-16T06:55:12.204Z,2.15
2017-12-16T06:55:37.676Z,2.2
2017-12-16T06:56:03.167Z,2.1
2017-12-16T06:56:28.671Z,2.26
2017-12-16T06:56:54.177Z,2.18
2017-12-16T06:57:19.675Z,2.13
2017-12-16T06:57:45.175Z,2.1
2017-12-16T06:58:10.654Z,2.18
2017-12-16T06:59:09.152Z,2.13
2017-12-16T06:59:34.639Z,2.13
2017-12-16T07:00:00.123Z,2.13
2017-12-16T07:00:25.651Z,2.15
2017-12-16T07:00:51.145Z,2.13
2017-12-16T07:01:16.638Z,2.18
2017-12-16T07:01:42.117Z,2.13
2017-12-16T07:02:50.801Z,2.13
2017-12-16T07:03:16.301Z,2.15
2017-12-16T07:03:41.788Z,2.11
2017-12-16T07:04:07.272Z,2.15
2017-12-16T07:04:32.751Z,2.11
2017-12-16T07:04:58.279Z,2.13
2017-12-16T07:05:23.773Z,2.11
2017-12-16T07:05:49.276Z,2.1
2017-12-16T07:06:14.764Z,2.13
2017-12-16T07:06:40.262Z,2.04
2017-12-16T07:07:05.758Z,2.02
2017-12-16T07:07:31.258Z,2
2017-12-16T07:07:56.758Z,2.06
2017-12-16T07:08:22.233Z,1.97
2017-12-16T07:08:47.731Z,2
2017-12-16T07:09:13.223Z,2
2017-12-16T07:09:38.700Z,2
2017-12-16T07:10:04.172Z,1.95
2017-12-16T07:10:29.643Z,2
2017-12-16T07:10:55.130Z,1.99
2017-12-16T07:11:20.624Z,2.04
2017-12-16T07:11:46.093Z,2.04
2017-12-16T07:12:11.602Z,1.99
2017-12-16T07:12:37.042Z,2.02
2017-12-16T07:13:02.552Z,2.06
2017-12-16T07:13:28.024Z,2.02
2017-12-16T07:13:53.513Z,2
2017-12-16T07:14:19.049Z,1.99
2017-12-16T07:14:44.534Z,2.02
2017-12-16T07:15:10.058Z,1.99
2017-12-16T07:15:35.500Z,2.04
2017-12-16T07:16:01.013Z,1.94
2017-12-16T07:16:26.439Z,1.99
2017-12-16T07:16:51.945Z,1.97
2017-12-16T07:17:17.371Z,1.97
2017-12-16T07:17:42.836Z,1.92
2017-12-16T07:18:08.312Z,1.92
2017-12-16T07:18:33.816Z,1.97
2017-12-16T07:18:59.307Z,1.92
2017-12-16T07:19:24.798Z,1.88
2017-12-16T07:19:50.279Z,1.95
2017-12-16T07:20:15.782Z,1.95
2017-12-16T07:20:41.278Z,1.91
2017-12-16T07:21:06.787Z,1.99
2017-12-16T07:21:32.232Z,1.94
2017-12-16T07:21:57.752Z,1.91
2017-12-16T07:22:46.062Z,1.97
2017-12-16T07:23:11.545Z,1.91
2017-12-16T07:23:37.053Z,1.94
2017-12-16T07:24:02.537Z,1.89
2017-12-16T07:24:28.024Z,1.97
2017-12-16T07:24:53.522Z,2.06
2017-12-16T07:25:19.038Z,1.97
2017-12-16T07:25:44.513Z,1.95
2017-12-16T07:26:10.015Z,1.97
2017-12-16T07:26:35.488Z,1.92
2017-12-16T07:27:01.002Z,1.97
2017-12-16T07:27:26.489Z,1.94
2017-12-16T07:27:51.987Z,1.94
2017-12-16T07:28:17.477Z,1.92
2017-12-16T07:28:42.942Z,1.91
2017-12-16T07:29:08.420Z,1.92
2017-12-16T07:29:33.909Z,1.91
2017-12-16T07:29:59.384Z,1.94
2017-12-16T07:30:24.897Z,1.88
2017-12-16T07:30:50.398Z,1.95
2017-12-16T07:31:15.910Z,1.97
2017-12-16T07:31:41.356Z,1.92
2017-12-16T07:32:06.850Z,1.92
2017-12-16T07:32:32.351Z,1.91
2017-12-16T07:32:57.832Z,1.95
2017-12-16T07:33:23.344Z,1.95
2017-12-16T07:34:22.087Z,1.87
2017-12-16T07:34:47.591Z,1.95
2017-12-16T07:35:13.130Z,1.91
2017-12-16T07:35:38.564Z,1.95
2017-12-16T07:36:04.079Z,1.95
2017-12-16T07:36:29.586Z,1.87
2017-12-16T07:36:55.040Z,1.92
2017-12-16T07:37:20.531Z,1.95
2017-12-16T07:37:46.016Z,1.92
2017-12-16T07:38:11.514Z,1.95
2017-12-16T07:38:36.971Z,1.89
2017-12-16T07:39:02.465Z,1.92
2017-12-16T07:39:27.951Z,1.89
2017-12-16T07:39:53.440Z,1.87
2017-12-16T07:40:18.945Z,1.91
2017-12-16T07:40:44.413Z,1.91
2017-12-16T07:41:09.892Z,1.95
2017-12-16T07:41:35.412Z,1.92
2017-12-16T07:42:00.903Z,1.94
2017-12-16T07:42:26.377Z,1.92
2017-12-16T07:42:51.863Z,1.91
2017-12-16T07:43:17.369Z,1.8
2017-12-16T07:43:42.902Z,1.88
2017-12-16T07:44:51.592Z,1.85
2017-12-16T07:45:17.063Z,1.84
2017-12-16T07:45:42.567Z,1.84
2017-12-16T07:46:08.066Z,1.88
2017-12-16T07:46:33.564Z,1.88
2017-12-16T07:46:59.045Z,1.91
2017-12-16T07:47:24.534Z,1.89
2017-12-16T07:47:50.026Z,1.81
2017-12-16T07:48:15.505Z,1.89
2017-12-16T07:49:03.794Z,1.91
2017-12-16T07:49:29.286Z,1.94
2017-12-16T07:49:54.781Z,1.88
2017-12-16T07:50:20.255Z,1.78
2017-12-16T07:50:45.754Z,1.85
2017-12-16T07:51:11.253Z,1.92
2017-12-16T07:51:36.727Z,1.88
2017-12-16T07:52:02.216Z,1.78
2017-12-16T07:52:27.696Z,1.92
2017-12-16T07:52:53.187Z,1.88
2017-12-16T07:53:18.696Z,1.91
2017-12-16T07:53:44.166Z,1.92
2017-12-16T07:54:09.672Z,1.91
2017-12-16T07:54:35.135Z,1.91
2017-12-16T07:55:00.613Z,1.92
2017-12-16T07:55:26.161Z,1.94
2017-12-16T07:55:51.604Z,1.92
2017-12-16T07:56:17.107Z,1.95
2017-12-16T07:56:42.583Z,1.95
2017-12-16T07:57:08.060Z,1.94
2017-12-16T07:57:33.593Z,1.95
2017-12-16T07:57:59.046Z,1.95
2017-12-16T07:58:24.550Z,1.94
2017-12-16T07:58:50.042Z,1.97
2017-12-16T07:59:15.529Z,1.95
2017-12-16T07:59:40.993Z,1.99
2017-12-16T08:00:06.457Z,1.91
2017-12-16T08:00:31.954Z,1.99
2017-12-16T08:00:57.481Z,1.99
2017-12-16T08:01:22.937Z,2
2017-12-16T08:01:48.399Z,2.04
2017-12-16T08:02:13.883Z,2.02
2017-12-16T08:02:39.380Z,2.04
2017-12-16T08:03:04.843Z,2.06
2017-12-16T08:03:30.324Z,2.06
2017-12-16T08:03:55.908Z,2.02
2017-12-16T08:04:21.352Z,2.06
2017-12-16T08:04:46.835Z,2.04
2017-12-16T08:05:12.340Z,1.95
2017-12-16T08:05:37.851Z,1.95
2017-12-16T08:06:03.344Z,1.95
2017-12-16T08:06:28.844Z,1.97
2017-12-16T08:06:54.363Z,2.07
2017-12-16T08:07:19.833Z,2.06
2017-12-16T08:07:45.326Z,2.11
2017-12-16T08:08:10.805Z,1.99
2017-12-16T08:08:36.308Z,2.11
2017-12-16T08:09:01.806Z,2.04
2017-12-16T08:09:55.222Z,2.11
2017-12-16T08:10:20.696Z,2.14
2017-12-16T08:10:46.174Z,2.1
2017-12-16T08:11:11.665Z,2.15
2017-12-16T08:11:37.148Z,2.14
2017-12-16T08:12:02.616Z,2.11
2017-12-16T08:12:28.102Z,2.17
2017-12-16T08:12:53.641Z,2.2
2017-12-16T08:13:19.172Z,2.14
2017-12-16T08:13:44.660Z,2.26
2017-12-16T08:14:10.145Z,2.24
2017-12-16T08:14:35.660Z,2.24
2017-12-16T08:15:01.130Z,2.28
2017-12-16T08:15:26.602Z,2.28
2017-12-16T08:15:52.112Z,2.26
2017-12-16T08:16:17.602Z,2.29
2017-12-16T08:16:43.078Z,2.26
2017-12-16T08:17:08.574Z,2.26
2017-12-16T08:17:34.046Z,2.28
2017-12-16T08:17:59.525Z,2.24
2017-12-16T08:18:25.026Z,2.31
2017-12-16T08:18:50.526Z,2.35
2017-12-16T08:19:16.016Z,2.33
2017-12-16T08:19:41.530Z,2.38
2017-12-16T08:20:07.021Z,2.29
2017-12-16T08:20:32.490Z,2.29
2017-12-16T08:20:57.997Z,2.31
2017-12-16T08:21:23.498Z,2.29
2017-12-16T08:21:48.963Z,2.43
2017-12-16T08:22:14.461Z,2.43
2017-12-16T08:22:39.942Z,2.38
2017-12-16T08:23:05.476Z,2.43
2017-12-16T08:23:31.018Z,2.33
2017-12-16T08:23:56.489Z,2.36
2017-12-16T08:24:22.004Z,2.38
2017-12-16T08:24:47.453Z,2.42
2017-12-16T08:25:12.922Z,2.42
2017-12-16T08:25:38.416Z,2.39
2017-12-16T08:26:03.904Z,2.39
2017-12-16T08:26:29.383Z,2.49
2017-12-16T08:26:54.861Z,2.56
2017-12-16T08:27:20.368Z,2.44
2017-12-16T08:27:45.901Z,2.5
2017-12-16T08:28:11.361Z,2.44
2017-12-16T08:28:36.829Z,2.47
2017-12-16T08:29:02.293Z,2.5
2017-12-16T08:29:27.828Z,2.53
2017-12-16T08:30:21.440Z,2.56
2017-12-16T08:30:46.942Z,2.56
2017-12-16T08:31:12.464Z,2.54
2017-12-16T08:31:37.983Z,2.56
2017-12-16T08:32:03.485Z,2.6
2017-12-16T08:32:28.995Z,2.64
2017-12-16T08:33:22.439Z,2.65
2017-12-16T08:33:47.914Z,2.57
2017-12-16T08:34:13.393Z,2.61
2017-12-16T08:34:38.875Z,2.67
2017-12-16T08:35:04.373Z,2.68
2017-12-16T08:35:29.871Z,2.74
2017-12-16T08:35:55.381Z,2.68
2017-12-16T08:36:20.856Z,2.82
2017-12-16T08:36:46.342Z,2.72
2017-12-16T08:37:11.883Z,2.8
2017-12-16T08:37:37.425Z,2.83
2017-12-16T08:38:02.868Z,2.93
2017-12-16T08:38:28.361Z,3
2017-12-16T08:38:53.845Z,2.95
2017-12-16T08:39:19.340Z,2.95
2017-12-16T08:39:44.825Z,3
2017-12-16T08:40:10.312Z,3.07
2017-12-16T08:40:35.839Z,3.01
2017-12-16T08:41:01.335Z,3.03
2017-12-16T08:41:26.827Z,3.04
2017-12-16T08:41:52.308Z,2.95
2017-12-16T08:42:17.802Z,2.97
2017-12-16T08:42:43.317Z,3.08
2017-12-16T08:43:08.799Z,3.05
2017-12-16T08:43:34.314Z,3.04
2017-12-16T08:44:27.997Z,3.14
2017-12-16T08:44:53.486Z,3.05
2017-12-16T08:45:18.975Z,3.05
2017-12-16T08:45:44.487Z,3.05
2017-12-16T08:46:09.970Z,3.04
2017-12-16T08:46:35.431Z,3.07
2017-12-16T08:47:00.991Z,3.04
2017-12-16T08:47:26.453Z,3.08
2017-12-16T08:47:51.922Z,3.1
2017-12-16T08:48:17.411Z,3.03
2017-12-16T08:48:42.934Z,3.1
2017-12-16T08:49:08.442Z,3.08
2017-12-16T08:49:33.917Z,3.01
2017-12-16T08:49:59.482Z,3.05
2017-12-16T08:50:24.949Z,3.1
2017-12-16T08:50:50.437Z,3.1
2017-12-16T08:51:15.945Z,3.1
2017-12-16T08:51:41.438Z,3.08
2017-12-16T08:52:06.943Z,3.04
2017-12-16T08:52:32.435Z,3.05
2017-12-16T08:52:57.933Z,3.07
2017-12-16T08:53:23.416Z,3.08
2017-12-16T08:53:48.910Z,3.11
2017-12-16T08:54:14.388Z,3.16
2017-12-16T08:54:39.869Z,3.16
2017-12-16T08:55:05.385Z,3.04
2017-12-16T08:55:30.937Z,3.1
2017-12-16T08:55:56.461Z,3.18
2017-12-16T08:56:21.957Z,3.19
2017-12-16T08:56:47.441Z,3.18
2017-12-16T08:57:12.902Z,3.13
2017-12-16T08:57:38.403Z,3.13
2017-12-16T08:58:03.910Z,3.14
2017-12-16T08:58:29.406Z,3.25
2017-12-16T08:58:54.887Z,3.22
2017-12-16T08:59:20.358Z,3.28
2017-12-16T08:59:45.866Z,3.25
2017-12-16T09:00:11.347Z,3.41
2017-12-16T09:00:36.838Z,3.36
2017-12-16T09:01:02.311Z,3.37
2017-12-16T09:01:27.826Z,3.37
2017-12-16T09:01:53.307Z,3.36
2017-12-16T09:02:18.827Z,3.41
2017-12-16T09:02:44.298Z,3.47
2017-12-16T09:03:09.800Z,3.42
2017-12-16T09:03:35.288Z,3.48
2017-12-16T09:04:00.802Z,3.55
2017-12-16T09:04:26.299Z,3.51
2017-12-16T09:04:51.800Z,3.53
2017-12-16T09:05:17.286Z,3.53
2017-12-16T09:05:42.779Z,3.55
2017-12-16T09:06:08.289Z,3.55
2017-12-16T09:06:33.796Z,3.62
2017-12-16T09:06:59.342Z,3.62
2017-12-16T09:07:24.817Z,3.58
2017-12-16T09:07:50.312Z,3.65
2017-12-16T09:08:15.791Z,3.76
2017-12-16T09:08:41.314Z,3.65
2017-12-16T09:09:06.804Z,3.68
2017-12-16T09:09:32.301Z,3.7
2017-12-16T09:09:57.822Z,3.7
2017-12-16T09:10:23.340Z,3.69
2017-12-16T09:10:48.834Z,3.69
2017-12-16T09:11:14.336Z,3.77
2017-12-16T09:11:39.858Z,3.73
2017-12-16T09:12:05.334Z,3.78
2017-12-16T09:12:30.854Z,3.7
2017-12-16T09:12:56.338Z,3.73
2017-12-16T09:13:21.801Z,3.74
2017-12-16T09:13:47.313Z,3.66
2017-12-16T09:14:12.786Z,3.76
2017-12-16T09:14:38.273Z,3.73
2017-12-16T09:15:03.765Z,3.84
2017-12-16T09:15:29.250Z,3.8
2017-12-16T09:15:54.761Z,3.81
2017-12-16T09:16:20.257Z,3.78
2017-12-16T09:16:45.753Z,3.78
2017-12-16T09:17:11.256Z,3.8
2017-12-16T09:17:36.757Z,3.84
2017-12-16T09:18:02.253Z,3.84
2017-12-16T09:18:27.741Z,3.88
2017-12-16T09:18:53.215Z,3.86
2017-12-16T09:19:18.666Z,3.83
2017-12-16T09:19:44.131Z,3.86
2017-12-16T09:20:09.669Z,3.84
2017-12-16T09:20:35.153Z,3.83
2017-12-16T09:21:00.692Z,3.84
2017-12-16T09:21:26.152Z,3.91
2017-12-16T09:21:51.628Z,3.91
2017-12-16T09:22:17.132Z,3.86
2017-12-16T09:22:42.616Z,3.88
2017-12-16T09:23:08.082Z,3.87
2017-12-16T09:23:33.583Z,3.94
2017-12-16T09:23:59.082Z,3.91
2017-12-16T09:24:24.589Z,3.91
2017-12-16T09:24:50.072Z,3.86
2017-12-16T09:25:15.533Z,3.86
2017-12-16T09:25:40.997Z,3.83
2017-12-16T09:26:06.464Z,3.87
2017-12-16T09:26:31.944Z,3.86
2017-12-16T09:27:40.833Z,3.76
2017-12-16T09:28:06.329Z,3.81
2017-12-16T09:28:31.846Z,3.8
2017-12-16T09:28:57.358Z,3.7
2017-12-16T09:29:22.820Z,3.74
2017-12-16T09:29:48.288Z,3.77
2017-12-16T09:30:13.771Z,3.78
2017-12-16T09:30:39.271Z,3.83
2017-12-16T09:31:04.792Z,3.74
2017-12-16T09:31:30.287Z,3.69
2017-12-16T09:31:55.816Z,3.62
2017-12-16T09:32:21.312Z,3.65
2017-12-16T09:32:46.809Z,3.73
2017-12-16T09:33:12.284Z,3.6
2017-12-16T09:33:37.782Z,3.63
2017-12-16T09:34:03.315Z,3.63
2017-12-16T09:34:28.818Z,3.68
2017-12-16T09:34:54.306Z,3.62
2017-12-16T09:35:19.764Z,3.66
2017-12-16T09:35:45.284Z,3.66
2017-12-16T09:36:10.792Z,3.59
2017-12-16T09:36:36.262Z,3.6
2017-12-16T09:37:01.850Z,3.74
2017-12-16T09:37:27.301Z,3.73
2017-12-16T09:37:52.824Z,3.73
2017-12-16T09:38:18.353Z,3.76
2017-12-16T09:38:43.832Z,3.74
2017-12-16T09:39:09.352Z,3.78
2017-12-16T09:39:34.838Z,3.73
2017-12-16T09:40:00.316Z,3.73
2017-12-16T09:40:25.839Z,3.66
2017-12-16T09:40:51.345Z,3.78
2017-12-16T09:41:16.841Z,3.83
2017-12-16T09:41:42.340Z,3.87
2017-12-16T09:42:07.821Z,3.83
2017-12-16T09:42:33.358Z,3.91
2017-12-16T09:42:58.853Z,3.92
2017-12-16T09:43:24.359Z,3.86
2017-12-16T09:43:49.882Z,3.95
2017-12-16T09:44:15.367Z,3.87
2017-12-16T09:44:40.883Z,3.98
2017-12-16T09:45:06.398Z,4.02
2017-12-16T09:45:31.948Z,4.02
2017-12-16T09:45:57.426Z,4.04
2017-12-16T09:46:22.930Z,4.05
2017-12-16T09:46:48.446Z,4.01
2017-12-16T09:47:13.974Z,4.05
2017-12-16T09:47:39.443Z,4.13
2017-12-16T09:48:04.962Z,4.12
2017-12-16T09:48:53.270Z,4.16
2017-12-16T09:49:18.806Z,4.19
2017-12-16T09:49:44.338Z,4.22
2017-12-16T09:50:09.834Z,4.23
2017-12-16T09:50:35.331Z,4.32
2017-12-16T09:51:00.918Z,4.35
2017-12-16T09:51:27.183Z,4.37
2017-12-16T09:51:52.687Z,4.38
2017-12-16T09:52:18.161Z,4.38
2017-12-16T09:52:43.655Z,4.42
2017-12-16T09:53:09.141Z,4.55
2017-12-16T09:54:03.427Z,4.56
2017-12-16T09:54:28.936Z,4.6
2017-12-16T09:54:54.442Z,4.63
2017-12-16T09:55:19.938Z,4.66
2017-12-16T09:55:45.430Z,4.66
2017-12-16T09:56:10.906Z,4.56
2017-12-16T09:56:36.408Z,4.63
2017-12-16T09:57:01.863Z,4.8
2017-12-16T09:57:27.358Z,4.74
2017-12-16T09:57:52.852Z,4.77
2017-12-16T09:58:18.342Z,4.78
2017-12-16T09:58:43.872Z,4.78
2017-12-16T09:59:09.346Z,4.82
2017-12-16T09:59:34.804Z,4.8
2017-12-16T10:00:00.250Z,4.8
2017-12-16T10:00:25.774Z,4.89
2017-12-16T10:00:51.254Z,4.82
2017-12-16T10:01:16.703Z,4.9
2017-12-16T10:01:42.161Z,4.84
2017-12-16T10:02:07.665Z,4.92
2017-12-16T10:02:33.131Z,4.84
2017-12-16T10:02:58.614Z,4.82
2017-12-16T10:03:24.083Z,4.84
2017-12-16T10:03:49.555Z,4.82
2017-12-16T10:04:15.056Z,4.8
2017-12-16T10:04:40.538Z,4.77
2017-12-16T10:05:06.041Z,4.73
2017-12-16T10:05:31.528Z,4.78
2017-12-16T10:05:56.989Z,4.78
2017-12-16T10:06:22.478Z,4.71
2017-12-16T10:06:48.017Z,4.6
2017-12-16T10:07:13.503Z,4.63
2017-12-16T10:08:17.101Z,4.66
2017-12-16T10:08:42.585Z,4.68
2017-12-16T10:09:08.056Z,4.63
2017-12-16T10:09:33.549Z,4.63
2017-12-16T10:09:58.989Z,4.53
2017-12-16T10:10:24.480Z,4.59
2017-12-16T10:10:49.986Z,4.49
2017-12-16T10:11:15.491Z,4.49
2017-12-16T10:11:40.972Z,4.49
2017-12-16T10:12:06.456Z,4.44
2017-12-16T10:12:31.927Z,4.49
2017-12-16T10:12:57.411Z,4.48
2017-12-16T10:13:22.929Z,4.37
2017-12-16T10:13:48.406Z,4.34
2017-12-16T10:14:13.858Z,4.4
2017-12-16T10:14:39.326Z,4.38
2017-12-16T10:15:04.806Z,4.4
2017-12-16T10:15:30.306Z,4.31
2017-12-16T10:15:55.847Z,4.38
2017-12-16T10:16:21.302Z,4.3
2017-12-16T10:16:46.784Z,4.37
2017-12-16T10:17:12.270Z,4.31
2017-12-16T10:17:37.726Z,4.31
2017-12-16T10:18:03.189Z,4.28
2017-12-16T10:18:28.718Z,4.26
2017-12-16T10:18:54.206Z,4.28
2017-12-16T10:19:19.726Z,4.34
2017-12-16T10:19:45.181Z,4.19
2017-12-16T10:20:10.723Z,4.2
2017-12-16T10:20:36.209Z,4.16
2017-12-16T10:21:01.676Z,4.14
2017-12-16T10:21:27.124Z,4.17
2017-12-16T10:21:52.621Z,4.17
2017-12-16T10:22:18.086Z,4.23
2017-12-16T10:22:43.836Z,4.16
2017-12-16T10:23:09.511Z,4.16
2017-12-16T10:23:35.146Z,4.23
2017-12-16T10:24:00.589Z,4.23
2017-12-16T10:24:26.075Z,4.34
2017-12-16T10:24:51.576Z,4.26
2017-12-16T10:25:17.148Z,4.31
2017-12-16T10:25:42.580Z,4.31
2017-12-16T10:26:08.046Z,4.38
2017-12-16T10:26:33.540Z,4.4
2017-12-16T10:26:59.036Z,4.31
2017-12-16T10:27:24.558Z,4.37
2017-12-16T10:27:50.025Z,4.35
2017-12-16T10:28:15.537Z,4.37
2017-12-16T10:28:41.000Z,4.44
2017-12-16T10:29:39.518Z,4.55
2017-12-16T10:30:05.007Z,4.56
2017-12-16T10:30:30.497Z,4.56
2017-12-16T10:30:55.998Z,4.56
2017-12-16T10:31:21.505Z,4.6
2017-12-16T10:31:46.969Z,4.67
2017-12-16T10:32:12.446Z,4.66
2017-12-16T10:32:37.902Z,4.7
2017-12-16T10:33:03.401Z,4.58
2017-12-16T10:33:28.900Z,4.6
2017-12-16T10:33:54.389Z,4.62
2017-12-16T10:34:19.847Z,4.67
2017-12-16T10:34:45.381Z,4.73
2017-12-16T10:35:10.860Z,4.66
2017-12-16T10:36:00.175Z,4.7
2017-12-16T10:36:25.647Z,4.78
2017-12-16T10:36:51.147Z,4.73
2017-12-16T10:37:16.636Z,4.74
2017-12-16T10:37:42.119Z,4.7
2017-12-16T10:38:07.636Z,4.82
2017-12-16T10:38:33.121Z,4.87
2017-12-16T10:38:58.621Z,4.8
2017-12-16T10:39:24.127Z,4.73
2017-12-16T10:39:49.658Z,4.84
2017-12-16T10:40:15.130Z,4.84
2017-12-16T10:41:18.725Z,4.82
2017-12-16T10:41:44.217Z,4.8
2017-12-16T10:42:09.690Z,4.84
2017-12-16T10:42:35.179Z,4.92
2017-12-16T10:43:00.688Z,4.92
2017-12-16T10:43:26.171Z,4.92
2017-12-16T10:43:51.641Z,4.89
2017-12-16T10:44:17.110Z,4.9
2017-12-16T10:44:42.573Z,4.93
2017-12-16T10:45:08.027Z,4.87
2017-12-16T10:45:33.532Z,4.94
2017-12-16T10:45:58.982Z,4.92
2017-12-16T10:46:47.279Z,4.94
2017-12-16T10:47:12.785Z,4.94
2017-12-16T10:47:38.290Z,4.94
2017-12-16T10:48:03.755Z,5
2017-12-16T10:48:29.257Z,4.99
2017-12-16T10:48:54.771Z,5
2017-12-16T10:49:20.231Z,4.97
2017-12-16T10:49:45.699Z,4.96
2017-12-16T10:50:11.204Z,4.97
2017-12-16T10:50:36.651Z,4.94
2017-12-16T10:51:02.198Z,4.99
2017-12-16T10:51:27.639Z,5
2017-12-16T10:51:53.140Z,5.05
2017-12-16T10:52:18.607Z,4.96
2017-12-16T10:52:44.133Z,4.96
2017-12-16T10:53:09.596Z,5.04
2017-12-16T10:53:35.071Z,5
2017-12-16T10:54:00.508Z,4.94
2017-12-16T10:54:26.021Z,5.02
2017-12-16T10:54:51.495Z,4.93
2017-12-16T10:55:17.015Z,4.92
2017-12-16T10:55:42.521Z,4.86